Los Angeles International Airport
KLAX : now visible

Airfield :











YOU CAN JOIN US ON...

 
LOGIN :

Register | Disclaimer

   EN    FR    IT 

 









Legend :    VFR   Marginal VFR   IFR   Intensive IFR   Very Intensive IFR
Visi :
Ceiling :
>= 8 km
>= 3000ft
5 to 8 km
1000 to 3000 ft
1500m to 5 km
500 to 1000 ft
800 to 1500m
200 to 500 ft
< 800m
< 200 ft
Symbols :   Thunderstorms  Fog  Heavy snow  Heavy precipitations  Wind > 20 kt







- Airport Elevation : 125 ft
- IATA code : LAX


KLAX - Los Angeles International

CURRENT METAR :
  • 210453Z 26011KT 10SM FEW060 FEW250 14/11 A2997 RMK AO2 SLP148 T01440106 $

EXPIRED METARs :
  • 210353Z 10SM FEW060 FEW250 15/11 A2995 RMK AO2 SLP142 T01500106 $
  • 210253Z 26014KT 10SM FEW060 FEW250 16/10 A2993 RMK AO2 SLP134 T01560100 53004 $

TAF KLAX
Valid from the 21 at 05:00 until the 22 at 06:00 UTC


210454Z 2105/2206 26012KT P6SM FEW020 SCT050
FM210800 26008KT P6SM BKN025
FM211700 27012KT P6SM BKN035
FM211900 25015G25KT P6SM BKN030
FM212300 26020G27KT P6SM BKN050
FM220300 26023KT P6SM BKN250
KZLA FIR / North America



MET'MAP, your aeronautical weather chart ! - Copyright ORBIFLY December 2007 - Disclaimer

ORBIFLY MET'MAP TEAM :

Programming & Development : Alexandra Zaïnal
Concept & Development : Baudouin d'Aumeries
Co-Development & Prog : Marc-Olivier Méhu
Technical & hardware support : Manuel Goepfert

Contact : metmap@orbifly.com




SOURCES & CREDITS :

   NOAA       Earth
Advisory